Time;durP1;ratioP1;P1;durP2;ratioP2;P2;SDS_P1;SDS_P2;PMS_P1;PMS_P2;Temp;Humidity;BMP_temperature;BMP_pressure;BME280_temperature;BME280_humidity;BME280_pressure;Samples;Min_cycle;Max_cycle;Signal;HPM_P1;HPM_P2
2023/04/02 00:00:09;;;;;;;0.50;0.50;;;2.90;99.90;;;;;;5109689;27;20039;-87
2023/04/02 00:02:56;;;;;;;0.60;0.60;;;2.70;99.90;;;;;;5078583;28;20046;-86
2023/04/02 00:05:29;;;;;;;0.60;0.60;;;2.90;99.90;;;;;;5089129;27;20126;-86
2023/04/02 00:08:01;;;;;;;0.57;0.57;;;2.50;99.90;;;;;;5089274;27;20047;-88
2023/04/02 00:10:45;;;;;;;0.60;0.60;;;2.40;99.90;;;;;;5091100;28;20063;-86
2023/04/02 00:13:12;;;;;;;0.60;0.60;;;2.30;99.90;;;;;;5099796;27;20407;-89
2023/04/02 00:15:44;;;;;;;1.10;1.10;;;2.20;99.90;;;;;;5125911;27;20027;-86
2023/04/02 00:18:19;;;;;;;0.65;0.65;;;2.20;99.90;;;;;;5088916;28;20036;-87
2023/04/02 00:20:58;;;;;;;1.30;1.23;;;2.10;99.90;;;;;;5084144;28;20484;-85
2023/04/02 00:23:23;;;;;;;0.60;0.60;;;2.10;99.90;;;;;;5108264;27;20039;-87
2023/04/02 00:25:49;;;;;;;0.70;0.70;;;2.10;99.90;;;;;;5106912;28;20043;-86
2023/04/02 00:28:19;;;;;;;;;;;2.10;99.90;;;;;;5107292;27;20035;-87
2023/04/02 00:30:54;;;;;;;0.80;0.80;;;2.90;99.90;;;;;;5100351;27;19924;-85
2023/04/02 00:33:22;;;;;;;0.63;0.63;;;1.90;99.90;;;;;;5102208;27;20058;-86
2023/04/02 00:35:51;;;;;;;0.80;0.80;;;1.90;99.90;;;;;;5105977;27;20047;-87
2023/04/02 00:38:32;;;;;;;0.70;0.70;;;2.50;99.90;;;;;;5106097;27;20031;-86
2023/04/02 00:41:02;;;;;;;0.80;0.80;;;2.20;99.90;;;;;;5100691;27;20043;-85
2023/04/02 00:43:31;;;;;;;0.60;0.60;;;1.80;99.90;;;;;;5093732;27;20096;-88
2023/04/02 00:46:02;;;;;;;0.65;0.65;;;1.80;99.90;;;;;;5103839;28;20053;-88
2023/04/02 00:48:31;;;;;;;0.80;0.80;;;1.80;99.90;;;;;;5091366;27;20039;-89
2023/04/02 00:51:23;;;;;;;0.70;0.70;;;1.70;99.90;;;;;;5087527;27;20084;-88
2023/04/02 00:53:52;;;;;;;0.77;0.77;;;1.70;99.90;;;;;;5094772;28;20061;-86
2023/04/02 00:56:28;;;;;;;0.60;0.60;;;1.60;99.90;;;;;;5103234;27;20043;-85
2023/04/02 00:58:55;;;;;;;0.82;0.82;;;1.60;99.90;;;;;;5104019;27;20031;-88
2023/04/02 01:01:26;;;;;;;0.75;0.75;;;1.60;99.90;;;;;;5107270;27;20077;-89
2023/04/02 01:04:02;;;;;;;0.60;0.60;;;1.50;99.90;;;;;;5102842;27;20114;-86
2023/04/02 01:06:33;;;;;;;0.80;0.80;;;1.40;99.90;;;;;;5089875;28;20071;-86
2023/04/02 01:09:25;;;;;;;0.63;0.63;;;1.40;99.90;;;;;;5070826;28;20051;-87
2023/04/02 01:12:39;;;;;;;1.60;1.60;;;1.40;99.90;;;;;;5104521;28;20051;-85
2023/04/02 01:15:05;;;;;;;0.80;0.80;;;1.40;99.90;;;;;;5044508;28;20097;-86
2023/04/02 01:17:34;;;;;;;0.70;0.70;;;1.30;99.90;;;;;;5084638;28;20086;-88
2023/04/02 01:20:22;;;;;;;0.70;0.70;;;1.90;99.90;;;;;;5103042;28;20552;-85
2023/04/02 01:23:29;;;;;;;0.60;0.60;;;1.40;99.90;;;;;;5085480;28;20047;-86
2023/04/02 01:26:00;;;;;;;0.60;0.60;;;1.30;99.90;;;;;;5033023;28;20047;-89
2023/04/02 01:28:30;;;;;;;0.63;0.63;;;1.30;99.90;;;;;;5105165;28;20047;-87
2023/04/02 01:30:58;;;;;;;0.60;0.60;;;1.30;99.90;;;;;;5107453;27;20064;-85
2023/04/02 01:33:32;;;;;;;0.60;0.60;;;1.30;99.90;;;;;;5110733;28;20035;-83
2023/04/02 01:36:25;;;;;;;0.80;0.80;;;1.90;99.90;;;;;;5112368;28;20661;-85
2023/04/02 01:39:12;;;;;;;0.60;0.60;;;1.20;99.90;;;;;;5103903;27;20074;-85
2023/04/02 01:41:52;;;;;;;0.60;0.60;;;1.10;99.90;;;;;;5075998;28;20050;-84
2023/04/02 01:44:47;;;;;;;0.70;0.70;;;1.10;99.90;;;;;;5076224;28;20581;-87
2023/04/02 01:47:16;;;;;;;1.27;1.25;;;1.10;99.90;;;;;;5089472;27;20038;-87
2023/04/02 01:49:42;;;;;;;0.70;0.70;;;1.00;99.90;;;;;;5086544;27;20448;-86
2023/04/02 01:52:16;;;;;;;0.60;0.60;;;1.00;99.90;;;;;;5085580;27;20035;-87
2023/04/02 01:54:42;;;;;;;0.70;0.70;;;0.90;99.90;;;;;;5109081;27;20038;-88
2023/04/02 01:57:08;;;;;;;0.60;0.60;;;0.90;99.90;;;;;;5082229;27;20058;-87
2023/04/02 01:59:35;;;;;;;0.60;0.60;;;1.60;99.90;;;;;;5101223;27;20043;-86
2023/04/02 02:02:06;;;;;;;0.63;0.63;;;1.00;99.90;;;;;;5085870;27;20096;-86
2023/04/02 02:04:33;;;;;;;0.77;0.77;;;1.00;99.90;;;;;;5089893;28;20054;-88
2023/04/02 02:07:00;;;;;;;0.80;0.80;;;0.90;99.90;;;;;;5067975;28;20046;-88
2023/04/02 02:09:37;;;;;;;0.80;0.80;;;1.10;99.90;;;;;;5093454;27;20063;-86
2023/04/02 02:12:04;;;;;;;0.70;0.70;;;1.90;99.90;;;;;;5088606;27;20388;-86
2023/04/02 02:14:30;;;;;;;1.48;1.38;;;0.80;99.90;;;;;;5086734;28;20040;-87
2023/04/02 02:17:01;;;;;;;0.80;0.80;;;0.70;99.90;;;;;;5095593;28;20384;-87
2023/04/02 02:19:38;;;;;;;0.60;0.60;;;0.70;99.90;;;;;;5094526;28;20043;-89
2023/04/02 02:22:15;;;;;;;0.68;0.68;;;0.60;99.90;;;;;;5086445;27;20031;-84
2023/04/02 02:24:43;;;;;;;0.73;0.73;;;0.60;99.90;;;;;;5094802;28;20548;-85
2023/04/02 02:27:21;;;;;;;0.65;0.65;;;0.50;99.90;;;;;;5079273;28;20127;-84
2023/04/02 02:30:10;;;;;;;0.60;0.60;;;0.50;99.90;;;;;;5076610;28;20048;-84
2023/04/02 02:32:42;;;;;;;0.80;0.80;;;0.50;99.90;;;;;;5087699;28;20043;-84
2023/04/02 02:35:19;;;;;;;0.70;0.70;;;0.40;99.90;;;;;;5078647;27;20625;-87
2023/04/02 02:37:52;;;;;;;0.77;0.77;;;0.40;99.90;;;;;;5105362;27;20072;-86
2023/04/02 02:40:26;;;;;;;0.60;0.60;;;0.30;99.90;;;;;;5112629;27;20046;-85
2023/04/02 02:43:03;;;;;;;0.60;0.60;;;0.30;99.90;;;;;;5076613;28;20084;-84
2023/04/02 02:45:36;;;;;;;0.75;0.75;;;0.30;99.90;;;;;;5100364;27;20058;-87
2023/04/02 02:48:05;;;;;;;1.02;1.02;;;0.30;99.90;;;;;;5101252;27;20043;-85
2023/04/02 02:50:32;;;;;;;1.10;1.08;;;0.60;99.90;;;;;;5103704;27;20365;-86
2023/04/02 02:53:01;;;;;;;0.77;0.77;;;0.40;99.90;;;;;;5100686;27;20133;-86
2023/04/02 02:55:32;;;;;;;0.70;0.70;;;0.30;99.90;;;;;;5107298;27;20039;-82
2023/04/02 02:58:14;;;;;;;0.70;0.70;;;0.30;99.90;;;;;;5109455;27;20046;-86
2023/04/02 03:00:42;;;;;;;0.70;0.70;;;0.30;99.90;;;;;;5101314;27;20036;-87
2023/04/02 03:03:16;;;;;;;0.80;0.80;;;0.20;99.90;;;;;;5099465;27;20556;-85
2023/04/02 03:05:43;;;;;;;0.70;0.70;;;0.20;99.90;;;;;;5076865;28;20043;-84
2023/04/02 03:08:20;;;;;;;0.70;0.70;;;0.20;99.90;;;;;;5100001;27;20050;-85
2023/04/02 03:11:05;;;;;;;0.70;0.70;;;0.20;99.90;;;;;;5082148;27;20052;-85
2023/04/02 03:13:38;;;;;;;0.80;0.80;;;0.10;99.90;;;;;;5101757;27;20055;-85
2023/04/02 03:16:35;;;;;;;0.73;0.73;;;0.10;99.90;;;;;;5093613;27;20035;-85
2023/04/02 03:19:07;;;;;;;0.77;0.77;;;0.20;99.90;;;;;;5118670;27;20038;-85
2023/04/02 03:21:41;;;;;;;0.80;0.80;;;0.10;99.90;;;;;;5114862;27;20061;-85
2023/04/02 03:24:22;;;;;;;0.60;0.60;;;0.10;99.90;;;;;;5098023;28;20046;-87
2023/04/02 03:26:59;;;;;;;0.70;0.70;;;0.10;99.90;;;;;;5092722;28;20096;-87
2023/04/02 03:29:27;;;;;;;0.70;0.70;;;0.10;99.90;;;;;;5094664;28;20044;-87
2023/04/02 03:32:03;;;;;;;0.80;0.80;;;0.10;99.90;;;;;;5099583;27;20047;-85
2023/04/02 03:34:55;;;;;;;0.70;0.70;;;0.10;99.90;;;;;;5087435;28;20118;-85
2023/04/02 03:37:54;;;;;;;0.70;0.70;;;0.10;99.90;;;;;;5068533;28;20041;-87
2023/04/02 03:40:26;;;;;;;0.68;0.68;;;0.30;99.90;;;;;;5096766;27;20412;-86
2023/04/02 03:43:01;;;;;;;0.70;0.70;;;0.10;99.90;;;;;;5086590;28;20066;-84
2023/04/02 03:45:32;;;;;;;0.73;0.73;;;0.10;99.90;;;;;;5094706;28;20090;-87
2023/04/02 03:48:02;;;;;;;0.70;0.70;;;0.10;99.90;;;;;;5103149;28;20175;-85
2023/04/02 03:50:27;;;;;;;0.82;0.82;;;0.00;99.90;;;;;;5087494;28;20044;-85
2023/04/02 03:52:53;;;;;;;0.70;0.70;;;0.00;99.90;;;;;;5105103;28;20084;-86
2023/04/02 03:55:24;;;;;;;0.80;0.80;;;0.00;99.90;;;;;;5102623;28;20112;-85
2023/04/02 03:58:05;;;;;;;0.82;0.82;;;0.50;99.90;;;;;;5092092;28;20039;-86
2023/04/02 04:00:42;;;;;;;0.80;0.80;;;0.00;99.90;;;;;;5099007;28;20043;-87
2023/04/02 04:03:29;;;;;;;0.80;0.80;;;0.00;99.90;;;;;;5096890;28;20047;-87
2023/04/02 04:06:09;;;;;;;0.70;0.70;;;0.00;99.90;;;;;;5071260;28;20036;-87
2023/04/02 04:09:07;;;;;;;0.70;0.70;;;0.00;99.90;;;;;;5094173;28;20092;-87
2023/04/02 04:11:36;;;;;;;0.70;0.70;;;0.00;99.90;;;;;;5087429;28;20044;-85
2023/04/02 04:14:26;;;;;;;0.70;0.70;;;-0.10;99.90;;;;;;5081000;28;20138;-85
2023/04/02 04:17:08;;;;;;;0.70;0.70;;;-0.10;99.90;;;;;;5077566;28;20102;-87
2023/04/02 04:19:44;;;;;;;0.60;0.60;;;-0.10;99.90;;;;;;5102163;28;20537;-86
2023/04/02 04:22:18;;;;;;;0.77;0.77;;;-0.10;99.90;;;;;;5097391;28;20052;-86
2023/04/02 04:24:48;;;;;;;0.73;0.73;;;-0.10;99.90;;;;;;5082788;28;20078;-87
2023/04/02 04:27:32;;;;;;;0.73;0.73;;;-0.10;99.90;;;;;;5071494;28;20050;-86
2023/04/02 04:30:17;;;;;;;0.88;0.88;;;-0.20;99.90;;;;;;5077640;28;20057;-86
2023/04/02 04:33:02;;;;;;;0.70;0.70;;;-0.10;99.90;;;;;;5091792;28;20110;-88
2023/04/02 04:35:35;;;;;;;0.70;0.70;;;-0.10;99.90;;;;;;5079452;27;20047;-85
2023/04/02 04:38:34;;;;;;;0.80;0.80;;;0.00;99.90;;;;;;5100194;27;20031;-86
2023/04/02 04:41:13;;;;;;;0.60;0.60;;;-0.10;99.90;;;;;;5092955;27;20091;-86
2023/04/02 04:43:53;;;;;;;0.60;0.60;;;-0.20;99.90;;;;;;5100558;27;20043;-87
2023/04/02 04:46:41;;;;;;;0.80;0.80;;;-0.20;99.90;;;;;;5096296;28;20501;-87
2023/04/02 04:49:57;;;;;;;0.60;0.60;;;-0.30;99.90;;;;;;5096063;27;20083;-88
2023/04/02 04:52:31;;;;;;;0.75;0.75;;;-0.30;99.90;;;;;;5084491;27;20089;-85
2023/04/02 04:54:57;;;;;;;0.70;0.70;;;-0.30;99.90;;;;;;5109547;27;20043;-87
2023/04/02 04:57:38;;;;;;;0.60;0.60;;;-0.30;99.90;;;;;;5073196;27;20058;-87
2023/04/02 05:00:27;;;;;;;0.70;0.70;;;0.60;99.90;;;;;;5109043;27;20047;-85
2023/04/02 05:03:02;;;;;;;0.80;0.80;;;-0.20;99.90;;;;;;5094123;27;20050;-86
2023/04/02 05:05:36;;;;;;;0.70;0.70;;;-0.10;99.90;;;;;;5094160;28;20772;-84
2023/04/02 05:08:24;;;;;;;0.73;0.73;;;-0.30;99.90;;;;;;5098258;27;20047;-88
2023/04/02 05:10:56;;;;;;;0.70;0.70;;;-0.30;99.90;;;;;;5106119;27;20498;-85
2023/04/02 05:13:27;;;;;;;0.85;0.85;;;-0.30;99.90;;;;;;5089941;27;20058;-86
2023/04/02 05:16:15;;;;;;;0.70;0.70;;;-0.30;99.90;;;;;;5097206;27;20480;-88
2023/04/02 05:19:09;;;;;;;0.73;0.73;;;-0.30;99.90;;;;;;5119303;27;20028;-87
2023/04/02 05:21:41;;;;;;;0.70;0.70;;;-0.30;99.90;;;;;;5083125;28;20465;-88
2023/04/02 05:24:29;;;;;;;0.77;0.77;;;-0.30;99.90;;;;;;5076036;27;20524;-88
2023/04/02 05:27:01;;;;;;;0.60;0.60;;;-0.30;99.90;;;;;;5095303;27;20044;-87
2023/04/02 05:29:39;;;;;;;0.65;0.65;;;-0.20;99.90;;;;;;5106512;27;20046;-87
2023/04/02 05:32:09;;;;;;;0.70;0.70;;;-0.20;99.90;;;;;;5083529;28;20043;-85
2023/04/02 05:34:38;;;;;;;0.70;0.70;;;-0.20;99.90;;;;;;5102540;27;20039;-86
2023/04/02 05:37:05;;;;;;;0.70;0.70;;;-0.20;99.90;;;;;;5082028;28;20498;-86
2023/04/02 05:39:31;;;;;;;0.70;0.70;;;-0.20;99.90;;;;;;5083901;28;20516;-85
2023/04/02 05:42:04;;;;;;;;;;;0.60;99.90;;;;;;5071209;27;20054;-86
2023/04/02 05:44:33;;;;;;;0.60;0.60;;;-0.10;99.90;;;;;;5089269;28;20428;-87
2023/04/02 05:47:18;;;;;;;0.75;0.75;;;-0.10;99.90;;;;;;5091173;28;20035;-86
2023/04/02 05:49:54;;;;;;;0.73;0.73;;;0.00;99.90;;;;;;5093405;27;20067;-84
2023/04/02 05:52:28;;;;;;;0.80;0.80;;;0.00;99.90;;;;;;5079653;27;20043;-84
2023/04/02 05:55:01;;;;;;;0.82;0.82;;;0.10;99.90;;;;;;5079395;28;20043;-86
2023/04/02 05:57:40;;;;;;;0.70;0.70;;;0.20;99.90;;;;;;5105746;27;20047;-84
2023/04/02 06:00:13;;;;;;;0.60;0.60;;;0.30;99.90;;;;;;5106500;28;20139;-83
2023/04/02 06:02:58;;;;;;;0.77;0.77;;;0.30;99.90;;;;;;5114721;27;20043;-84
2023/04/02 06:05:34;;;;;;;0.80;0.80;;;0.40;99.90;;;;;;5103644;28;20126;-86
2023/04/02 06:08:07;;;;;;;0.70;0.70;;;0.50;99.90;;;;;;5086351;28;20467;-87
2023/04/02 06:10:36;;;;;;;4.45;2.80;;;0.50;99.90;;;;;;5100070;27;21631;-86
2023/04/02 06:13:07;;;;;;;0.65;0.65;;;0.60;99.90;;;;;;5097172;27;20039;-85
2023/04/02 06:15:35;;;;;;;0.50;0.50;;;0.60;99.90;;;;;;5095122;27;20067;-85
2023/04/02 06:18:21;;;;;;;0.70;0.70;;;0.60;99.90;;;;;;5085860;27;20095;-85
2023/04/02 06:20:46;;;;;;;0.55;0.55;;;0.90;99.90;;;;;;5094361;27;20040;-87
2023/04/02 06:23:20;;;;;;;0.50;0.50;;;0.70;99.90;;;;;;5079991;27;20039;-86
2023/04/02 06:26:11;;;;;;;0.70;0.70;;;0.80;99.90;;;;;;5096017;27;20365;-87
2023/04/02 06:28:46;;;;;;;0.55;0.55;;;0.90;99.90;;;;;;5092012;27;20543;-85
2023/04/02 06:31:29;;;;;;;0.70;0.70;;;1.00;99.90;;;;;;5081571;27;20042;-88
2023/04/02 06:33:55;;;;;;;0.60;0.60;;;1.10;99.90;;;;;;5076823;28;20488;-85
2023/04/02 06:36:23;;;;;;;0.70;0.70;;;1.20;99.90;;;;;;5064404;28;20032;-87
2023/04/02 06:38:49;;;;;;;0.80;0.80;;;1.30;99.90;;;;;;5078533;28;20048;-89
2023/04/02 06:41:23;;;;;;;0.50;0.50;;;1.40;99.90;;;;;;5097174;27;20043;-85
2023/04/02 06:44:03;;;;;;;0.60;0.60;;;1.50;99.90;;;;;;5097895;28;20044;-85
2023/04/02 06:46:57;;;;;;;0.60;0.60;;;1.60;99.90;;;;;;5095919;27;20075;-85
2023/04/02 06:49:41;;;;;;;0.70;0.70;;;1.80;99.90;;;;;;5084173;28;20046;-85
2023/04/02 06:52:38;;;;;;;0.65;0.65;;;1.90;99.90;;;;;;5078340;28;20038;-86
2023/04/02 06:55:35;;;;;;;0.70;0.70;;;2.00;99.90;;;;;;5082599;28;20046;-85
2023/04/02 06:58:02;;;;;;;0.60;0.60;;;2.10;99.90;;;;;;5090006;28;20138;-84
2023/04/02 07:00:33;;;;;;;0.60;0.60;;;2.10;99.90;;;;;;5083643;28;20055;-84
2023/04/02 07:03:04;;;;;;;0.55;0.55;;;2.20;99.90;;;;;;5099832;28;20055;-84
2023/04/02 07:05:30;;;;;;;0.65;0.65;;;2.20;99.90;;;;;;5083814;28;20062;-83
2023/04/02 07:07:56;;;;;;;0.60;0.60;;;2.30;99.90;;;;;;5090404;28;20130;-84
2023/04/02 07:10:22;;;;;;;0.50;0.50;;;2.90;99.90;;;;;;5071787;28;20138;-83
2023/04/02 07:12:47;;;;;;;0.70;0.70;;;2.60;99.90;;;;;;5077468;28;20446;-85
2023/04/02 07:15:22;;;;;;;0.60;0.60;;;3.00;99.90;;;;;;5092820;28;20496;-84
2023/04/02 07:17:48;;;;;;;0.50;0.50;;;2.90;99.90;;;;;;5104352;28;20047;-84
2023/04/02 07:20:36;;;;;;;0.65;0.65;;;3.20;99.90;;;;;;5100668;28;20401;-84
2023/04/02 07:23:02;;;;;;;0.60;0.60;;;3.10;99.90;;;;;;5096968;28;20211;-84
2023/04/02 07:25:28;;;;;;;0.50;0.50;;;3.10;99.90;;;;;;5085250;28;20052;-85
2023/04/02 07:27:55;;;;;;;0.57;0.57;;;3.60;99.90;;;;;;5073263;28;20078;-85
2023/04/02 07:30:21;;;;;;;0.70;0.70;;;3.20;99.90;;;;;;5094764;28;20078;-85
2023/04/02 07:32:48;;;;;;;0.70;0.70;;;3.40;99.90;;;;;;5079638;28;20132;-85
2023/04/02 07:35:13;;;;;;;0.60;0.60;;;3.40;99.90;;;;;;5092798;28;20074;-85
2023/04/02 07:37:39;;;;;;;0.65;0.65;;;3.60;99.90;;;;;;5091869;28;20077;-84
2023/04/02 07:40:15;;;;;;;0.63;0.63;;;3.70;99.90;;;;;;5083768;28;20112;-84
2023/04/02 07:42:40;;;;;;;0.50;0.50;;;3.90;99.90;;;;;;5093318;28;20043;-87
2023/04/02 07:45:07;;;;;;;0.60;0.60;;;4.10;99.90;;;;;;5091373;28;20104;-85
2023/04/02 07:47:33;;;;;;;0.60;0.60;;;4.30;99.90;;;;;;5080958;28;20082;-88
2023/04/02 07:49:58;;;;;;;0.60;0.60;;;4.60;99.90;;;;;;5088303;28;20132;-86
2023/04/02 07:52:24;;;;;;;0.50;0.50;;;4.60;99.90;;;;;;5091545;28;20052;-86
2023/04/02 07:54:50;;;;;;;0.50;0.50;;;4.70;99.90;;;;;;5092907;28;20039;-83
2023/04/02 07:57:16;;;;;;;0.60;0.60;;;5.00;99.90;;;;;;5074037;28;20481;-84
2023/04/02 07:59:41;;;;;;;0.50;0.50;;;5.10;99.90;;;;;;5097370;28;20059;-80
2023/04/02 08:02:21;;;;;;;0.50;0.50;;;5.60;99.90;;;;;;5098681;28;20441;-78
2023/04/02 08:04:50;;;;;;;0.57;0.57;;;5.10;99.90;;;;;;5101653;28;20035;-81
2023/04/02 08:07:16;;;;;;;0.40;0.40;;;5.10;99.90;;;;;;5088088;28;20047;-78
2023/04/02 08:09:42;;;;;;;0.50;0.50;;;5.20;99.90;;;;;;5092987;28;20044;-76
2023/04/02 08:12:12;;;;;;;0.55;0.55;;;5.10;99.90;;;;;;5100286;27;20085;-77
2023/04/02 08:14:43;;;;;;;0.50;0.50;;;5.10;99.90;;;;;;5091034;27;20127;-80
2023/04/02 08:17:10;;;;;;;0.70;0.70;;;5.10;99.90;;;;;;5095110;28;20452;-78
2023/04/02 08:19:36;;;;;;;0.50;0.50;;;5.20;99.90;;;;;;5102713;27;20079;-77
2023/04/02 08:22:01;;;;;;;0.60;0.60;;;5.20;99.90;;;;;;5102486;27;20074;-78
2023/04/02 08:24:27;;;;;;;0.43;0.43;;;5.10;99.90;;;;;;5072997;28;20096;-77
2023/04/02 08:26:53;;;;;;;0.60;0.60;;;5.00;99.90;;;;;;5112247;28;20047;-78
2023/04/02 08:29:19;;;;;;;0.60;0.60;;;4.90;99.90;;;;;;5094092;28;20411;-78
2023/04/02 08:31:45;;;;;;;0.50;0.50;;;4.90;99.90;;;;;;5095481;28;20091;-77
2023/04/02 08:34:11;;;;;;;0.50;0.50;;;5.10;99.90;;;;;;5094031;28;20057;-78
2023/04/02 08:36:42;;;;;;;0.60;0.60;;;5.00;99.90;;;;;;5080123;27;20114;-78
2023/04/02 08:39:11;;;;;;;0.50;0.50;;;5.10;99.90;;;;;;5097890;27;20050;-78
2023/04/02 08:42:03;;;;;;;0.50;0.50;;;5.30;99.90;;;;;;5116963;27;20122;-77
2023/04/02 08:44:35;;;;;;;0.60;0.60;;;5.40;99.90;;;;;;5100242;27;20432;-77
2023/04/02 08:47:08;;;;;;;0.55;0.55;;;5.70;99.90;;;;;;5076904;28;20473;-77
2023/04/02 08:49:53;;;;;;;0.52;0.52;;;5.50;99.90;;;;;;5094181;27;20687;-77
2023/04/02 08:52:23;;;;;;;0.40;0.40;;;5.50;99.90;;;;;;5109727;27;20071;-78
2023/04/02 08:54:49;;;;;;;0.40;0.40;;;5.40;99.90;;;;;;5102086;27;20051;-78
2023/04/02 08:57:37;;;;;;;;;;;5.50;99.90;;;;;;5092918;27;20035;-79
2023/04/02 09:00:27;;;;;;;0.50;0.50;;;5.50;99.90;;;;;;5080804;27;20321;-78
2023/04/02 09:03:01;;;;;;;0.52;0.52;;;5.60;99.90;;;;;;5096991;27;20479;-79
2023/04/02 09:05:31;;;;;;;0.60;0.60;;;5.70;99.90;;;;;;5102954;27;20047;-79
2023/04/02 09:08:01;;;;;;;0.40;0.40;;;5.90;99.90;;;;;;5101722;27;20175;-77
2023/04/02 09:10:52;;;;;;;0.40;0.40;;;6.00;99.90;;;;;;5117728;27;20126;-78
2023/04/02 09:13:29;;;;;;;0.60;0.60;;;6.00;99.90;;;;;;5090793;27;20032;-80
2023/04/02 09:16:02;;;;;;;;;;;5.90;99.90;;;;;;5098684;28;20484;-79
2023/04/02 09:18:31;;;;;;;0.60;0.60;;;6.00;99.90;;;;;;5098449;28;19934;-79
2023/04/02 09:20:57;;;;;;;0.50;0.50;;;6.20;99.90;;;;;;5100547;28;20217;-78
2023/04/02 09:23:25;;;;;;;0.50;0.50;;;6.30;99.90;;;;;;5098390;28;20126;-77
2023/04/02 09:25:53;;;;;;;0.50;0.50;;;6.40;99.90;;;;;;5094628;27;20467;-77
2023/04/02 09:28:20;;;;;;;0.50;0.50;;;6.30;99.90;;;;;;5082109;27;20058;-79
2023/04/02 09:31:15;;;;;;;0.50;0.50;;;6.30;99.90;;;;;;5085003;28;20046;-78
2023/04/02 09:33:47;;;;;;;0.40;0.40;;;6.40;99.90;;;;;;5112359;27;20035;-78
2023/04/02 09:36:37;;;;;;;0.50;0.50;;;6.50;99.90;;;;;;5100503;27;20437;-79
2023/04/02 09:39:20;;;;;;;0.45;0.45;;;6.50;99.90;;;;;;5102585;27;20040;-77
2023/04/02 09:41:46;;;;;;;0.50;0.50;;;6.50;99.90;;;;;;5098843;28;20082;-79
2023/04/02 09:44:21;;;;;;;0.50;0.50;;;6.50;99.90;;;;;;5100253;28;20114;-79
2023/04/02 09:46:58;;;;;;;0.47;0.47;;;6.60;99.90;;;;;;5093980;27;20042;-80
2023/04/02 09:49:25;;;;;;;;;;;6.70;99.90;;;;;;5097685;28;20082;-77
2023/04/02 09:52:27;;;;;;;0.50;0.50;;;6.80;99.90;;;;;;5090918;27;20010;-78
2023/04/02 09:55:20;;;;;;;0.40;0.40;;;6.80;99.90;;;;;;5082325;27;20054;-79
2023/04/02 09:57:50;;;;;;;0.60;0.60;;;6.70;99.90;;;;;;5089573;27;20031;-79
2023/04/02 10:00:21;;;;;;;1.10;0.90;;;6.70;99.90;;;;;;5091006;27;20052;-79
2023/04/02 10:03:06;;;;;;;0.50;0.50;;;6.70;99.90;;;;;;5100538;27;20442;-79
2023/04/02 10:05:33;;;;;;;0.50;0.50;;;6.80;99.90;;;;;;5080133;27;20047;-78
2023/04/02 10:08:26;;;;;;;0.45;0.45;;;6.80;99.90;;;;;;5100583;27;20047;-80
2023/04/02 10:10:56;;;;;;;0.50;0.50;;;6.90;99.90;;;;;;5122318;27;20051;-78
2023/04/02 10:13:43;;;;;;;0.50;0.50;;;6.90;99.90;;;;;;5102245;28;20047;-78
2023/04/02 10:16:20;;;;;;;0.55;0.55;;;7.00;99.90;;;;;;5113193;27;20027;-79
2023/04/02 10:19:12;;;;;;;0.60;0.60;;;7.00;99.90;;;;;;5100516;27;20043;-78
2023/04/02 10:21:41;;;;;;;0.50;0.50;;;7.10;99.90;;;;;;5095396;27;20123;-80
2023/04/02 10:24:12;;;;;;;0.40;0.40;;;7.10;99.90;;;;;;5107334;28;20035;-78
2023/04/02 10:27:16;;;;;;;0.38;0.38;;;7.20;99.90;;;;;;5089173;27;20069;-80
2023/04/02 10:30:04;;;;;;;0.52;0.52;;;7.10;99.90;;;;;;4995264;28;20041;-79
2023/04/02 10:32:47;;;;;;;0.50;0.50;;;7.20;99.90;;;;;;5002906;28;20107;-78
2023/04/02 10:35:36;;;;;;;0.50;0.50;;;7.30;99.90;;;;;;5083610;27;20058;-79
2023/04/02 10:38:14;;;;;;;0.40;0.40;;;7.40;99.90;;;;;;5094499;27;20047;-79
2023/04/02 10:41:08;;;;;;;0.30;0.30;;;7.40;99.90;;;;;;5102177;27;20610;-78
2023/04/02 10:43:48;;;;;;;0.50;0.50;;;7.50;99.90;;;;;;5116420;27;20049;-79
2023/04/02 10:46:19;;;;;;;0.52;0.52;;;7.60;99.90;;;;;;5078327;27;20172;-78
2023/04/02 10:49:08;;;;;;;0.40;0.40;;;7.70;99.90;;;;;;5113094;27;20075;-79
2023/04/02 10:52:02;;;;;;;0.45;0.45;;;7.80;99.90;;;;;;5094804;27;20111;-77
2023/04/02 10:54:46;;;;;;;0.40;0.40;;;7.90;99.90;;;;;;5100673;27;20054;-78
2023/04/02 10:57:36;;;;;;;0.65;0.65;;;7.80;99.90;;;;;;5105800;27;20036;-78
2023/04/02 11:00:09;;;;;;;0.40;0.40;;;7.80;99.90;;;;;;5068506;28;20048;-79
2023/04/02 11:02:36;;;;;;;0.50;0.50;;;7.70;99.90;;;;;;5106245;27;20043;-78
2023/04/02 11:05:05;;;;;;;;;;;7.70;99.90;;;;;;5089874;28;20040;-78
2023/04/02 11:07:51;;;;;;;0.60;0.60;;;7.80;99.90;;;;;;5078800;27;19919;-77
2023/04/02 11:10:18;;;;;;;0.40;0.40;;;7.90;99.90;;;;;;5101250;27;20446;-77
2023/04/02 11:13:22;;;;;;;0.30;0.30;;;7.90;99.90;;;;;;5087243;27;2165522;-79
2023/04/02 11:15:49;;;;;;;0.50;0.50;;;8.00;99.90;;;;;;5103149;27;20090;-78
2023/04/02 11:18:23;;;;;;;;;;;7.90;99.90;;;;;;5102316;28;20047;-78
2023/04/02 11:21:00;;;;;;;0.50;0.50;;;8.00;99.90;;;;;;5142240;27;20371;-78
2023/04/02 11:23:31;;;;;;;0.40;0.40;;;8.20;99.90;;;;;;5128785;27;20053;-79
2023/04/02 11:26:36;;;;;;;0.47;0.47;;;8.20;99.90;;;;;;5125382;27;20179;-80
2023/04/02 11:29:13;;;;;;;0.43;0.43;;;8.30;99.90;;;;;;5114061;28;20154;-78
2023/04/02 11:31:42;;;;;;;0.30;0.30;;;8.50;99.90;;;;;;5124319;27;20046;-77
2023/04/02 11:34:35;;;;;;;0.40;0.40;;;8.70;99.90;;;;;;5122029;27;20500;-78
2023/04/02 11:37:03;;;;;;;0.30;0.30;;;8.80;99.90;;;;;;5108851;28;20040;-78
2023/04/02 11:39:52;;;;;;;0.40;0.40;;;8.70;99.90;;;;;;5124013;27;20062;-77
2023/04/02 11:42:18;;;;;;;0.50;0.50;;;8.70;99.90;;;;;;5123370;28;20634;-79
2023/04/02 11:44:44;;;;;;;0.40;0.40;;;8.80;99.90;;;;;;5109790;27;20049;-77
2023/04/02 11:47:21;;;;;;;0.50;0.50;;;8.80;99.90;;;;;;5127088;27;20079;-77
2023/04/02 11:50:02;;;;;;;0.50;0.50;;;8.70;99.90;;;;;;5127099;27;20042;-79
2023/04/02 11:52:48;;;;;;;0.40;0.40;;;8.70;99.90;;;;;;5118503;27;20491;-77
2023/04/02 11:55:26;;;;;;;4.57;2.15;;;8.60;99.90;;;;;;5129541;27;20517;-77
2023/04/02 11:58:01;;;;;;;0.55;0.55;;;8.50;99.90;;;;;;5127383;27;20102;-78
2023/04/02 12:00:40;;;;;;;0.35;0.35;;;8.50;99.90;;;;;;5111048;27;20108;-77
2023/04/02 12:03:42;;;;;;;0.60;0.60;;;8.50;99.90;;;;;;5129355;27;20388;-79
2023/04/02 12:06:17;;;;;;;0.43;0.43;;;8.50;99.90;;;;;;5125962;27;20476;-78
2023/04/02 12:09:09;;;;;;;0.30;0.30;;;8.80;99.90;;;;;;5106619;27;20154;-78
2023/04/02 12:11:40;;;;;;;0.40;0.40;;;9.00;99.90;;;;;;5105992;27;20051;-78
2023/04/02 12:14:41;;;;;;;0.45;0.45;;;8.80;99.90;;;;;;5109686;28;20062;-78
2023/04/02 12:17:39;;;;;;;0.38;0.38;;;8.80;99.90;;;;;;5135017;27;20400;-78
2023/04/02 12:20:08;;;;;;;0.30;0.30;;;8.90;99.90;;;;;;5115039;27;20114;-77
2023/04/02 12:22:39;;;;;;;0.30;0.30;;;8.90;99.90;;;;;;5129773;27;20054;-78
2023/04/02 12:25:18;;;;;;;0.50;0.50;;;8.90;99.90;;;;;;5117210;27;20043;-79
2023/04/02 12:27:46;;;;;;;0.40;0.40;;;8.90;99.90;;;;;;5110585;27;20046;-80
2023/04/02 12:30:17;;;;;;;0.85;0.82;;;8.80;99.90;;;;;;5115915;27;20042;-77
2023/04/02 12:32:43;;;;;;;0.40;0.40;;;8.80;99.90;;;;;;5111679;27;20046;-78
2023/04/02 12:35:30;;;;;;;0.40;0.40;;;8.80;99.90;;;;;;5114539;27;20043;-78
2023/04/02 12:37:56;;;;;;;0.40;0.40;;;8.90;99.90;;;;;;5117863;27;20391;-79
2023/04/02 12:40:23;;;;;;;0.40;0.40;;;9.20;99.90;;;;;;5112645;27;20047;-79
2023/04/02 12:42:49;;;;;;;0.40;0.40;;;9.30;99.90;;;;;;5097284;28;20067;-79
2023/04/02 12:45:27;;;;;;;0.50;0.50;;;9.50;99.90;;;;;;5112956;27;20035;-78
2023/04/02 12:47:53;;;;;;;0.40;0.40;;;9.80;99.90;;;;;;5104413;27;20079;-79
2023/04/02 12:50:22;;;;;;;0.32;0.32;;;10.10;99.90;;;;;;5108331;28;20050;-79
2023/04/02 12:52:53;;;;;;;0.32;0.32;;;10.30;99.90;;;;;;5092049;28;20062;-78
2023/04/02 12:55:23;;;;;;;0.30;0.30;;;10.20;99.90;;;;;;5113341;27;20071;-79
2023/04/02 12:57:55;;;;;;;0.38;0.38;;;10.20;99.90;;;;;;5130014;27;20126;-78
2023/04/02 13:00:21;;;;;;;0.40;0.40;;;10.20;99.90;;;;;;5106261;27;20050;-78
2023/04/02 13:03:04;;;;;;;0.60;0.32;;;10.10;99.90;;;;;;5128409;27;20052;-78
2023/04/02 13:05:54;;;;;;;0.30;0.30;;;10.00;99.90;;;;;;5126635;27;20051;-80
2023/04/02 13:08:37;;;;;;;0.28;0.28;;;10.00;99.90;;;;;;5123714;27;20120;-80
2023/04/02 13:11:05;;;;;;;0.43;0.43;;;10.10;99.90;;;;;;5111022;27;20401;-78
2023/04/02 13:13:49;;;;;;;0.50;0.50;;;9.70;99.90;;;;;;5109665;28;20055;-79
2023/04/02 13:16:23;;;;;;;0.38;0.38;;;9.60;99.90;;;;;;5124206;27;20086;-78
2023/04/02 13:18:49;;;;;;;0.40;0.40;;;9.70;99.90;;;;;;5125066;27;20073;-79
2023/04/02 13:21:15;;;;;;;0.38;0.38;;;9.80;99.90;;;;;;5099815;27;20054;-79
2023/04/02 13:23:42;;;;;;;0.40;0.40;;;9.70;99.90;;;;;;5120071;27;20047;-79
2023/04/02 13:26:28;;;;;;;0.40;0.40;;;9.90;99.90;;;;;;5109941;28;20044;-78
2023/04/02 13:28:56;;;;;;;0.20;0.20;;;9.80;99.90;;;;;;5089995;28;20044;-78
2023/04/02 13:31:21;;;;;;;0.40;0.40;;;9.70;99.90;;;;;;5108517;27;20109;-78
2023/04/02 13:33:47;;;;;;;0.40;0.40;;;9.60;99.90;;;;;;5108917;28;20489;-80
2023/04/02 13:36:14;;;;;;;0.30;0.30;;;9.60;99.90;;;;;;5112568;27;20039;-79
2023/04/02 13:38:40;;;;;;;0.20;0.20;;;9.80;99.90;;;;;;5102258;27;20497;-80
2023/04/02 13:41:35;;;;;;;;;;;9.90;99.90;;;;;;5111076;28;20123;-78